sensor_id;sensor_type;location;lat;lon;timestamp;pressure;altitude;pressure_sealevel;temperature;humidity
46382;BME280;66809;52.974;-2.514;2024-02-21T00:00:12;1009.7941148632373;;;8.644825686859338;45.77253573706863
46382;BME280;66809;52.974;-2.514;2024-02-21T00:02:12;1009.7460312021394;;;8.599606579434203;45.82366754613109
46382;BME280;66809;52.974;-2.514;2024-02-21T00:04:12;1009.701006413216;;;8.578395155978662;45.867246632702134
46382;BME280;66809;52.974;-2.514;2024-02-21T00:06:12;1009.656924482477;;;8.54718002477929;45.90843330753501
46382;BME280;66809;52.974;-2.514;2024-02-21T00:08:12;1009.6122326164347;;;8.529421765670818;45.944542309856324
46382;BME280;66809;52.974;-2.514;2024-02-21T00:10:12;1009.5679712152031;;;8.509655429131534;45.98592379562726
46382;BME280;66809;52.974;-2.514;2024-02-21T00:12:12;1009.5252733192307;;;8.487303284292754;46.02419773890538
46382;BME280;66809;52.974;-2.514;2024-02-21T00:14:12;1009.4817045492465;;;8.476023853609748;46.05682690404928
46382;BME280;66809;52.974;-2.514;2024-02-21T00:16:12;1009.4400874768178;;;8.461251208023905;46.08381210202586
46382;BME280;66809;52.974;-2.514;2024-02-21T00:18:12;1009.4004618979488;;;8.442333469811038;46.11125751852834
46382;BME280;66809;52.974;-2.514;2024-02-21T00:20:13;1009.362104740604;;;8.4241046982008;46.14046490960904
46382;BME280;66809;52.974;-2.514;2024-02-21T00:22:12;1009.3261860341737;;;8.399029399226405;46.17407983060006
46382;BME280;66809;52.974;-2.514;2024-02-21T00:24:12;1009.2910737458602;;;8.383689965171497;46.19367056524434
46382;BME280;66809;52.974;-2.514;2024-02-21T00:26:13;1009.2528220745734;;;8.355005862223338;46.21500906789113
46382;BME280;66809;52.974;-2.514;2024-02-21T00:28:12;1009.2143327058337;;;8.340264985509153;46.232964030939776
46382;BME280;66809;52.974;-2.514;2024-02-21T00:30:13;1009.1770019729408;;;8.326260027122547;46.239637710064095
46382;BME280;66809;52.974;-2.514;2024-02-21T00:32:12;1009.1402518827807;;;8.31300827690772;46.23482046965384
46382;BME280;66809;52.974;-2.514;2024-02-21T00:34:12;1009.106342576098;;;8.300922420445447;46.23689560568725
46382;BME280;66809;52.974;-2.514;2024-02-21T00:36:12;1009.073367626098;;;8.281379611494044;46.23879315820938
46382;BME280;66809;52.974;-2.514;2024-02-21T00:38:12;1009.0418742156791;;;8.272419251670787;46.23466069617962
46382;BME280;66809;52.974;-2.514;2024-02-21T00:40:12;1009.0114450049095;;;8.259707193973103;46.23320185671161
46382;BME280;66809;52.974;-2.514;2024-02-21T00:42:12;1008.9789308250162;;;8.25462405353566;46.21640094188313
46382;BME280;66809;52.974;-2.514;2024-02-21T00:44:12;1008.9403222327053;;;8.257176263253616;46.18968191731763
46382;BME280;66809;52.974;-2.514;2024-02-21T00:46:12;1008.8970921953177;;;8.253227381160274;46.16733847256757
46382;BME280;66809;52.974;-2.514;2024-02-21T00:48:12;1008.8518115630438;;;8.258970349478618;46.140324226616535
46382;BME280;66809;52.974;-2.514;2024-02-21T00:50:13;1008.8073728158055;;;8.259857042858084;46.1211627824669
46382;BME280;66809;52.974;-2.514;2024-02-21T00:52:12;1008.7657882687668;;;8.246264783721594;46.096254870334064
46382;BME280;66809;52.974;-2.514;2024-02-21T00:54:12;1008.7252760440102;;;8.24322136330086;46.07612723236705
46382;BME280;66809;52.974;-2.514;2024-02-21T00:56:13;1008.6864366380548;;;8.236244850320999;46.045499087833
46382;BME280;66809;52.974;-2.514;2024-02-21T00:58:13;1008.646860785997;;;8.22929651153641;46.01447167987696
46382;BME280;66809;52.974;-2.514;2024-02-21T01:00:13;1008.6059600153033;;;8.216569643316454;45.98158521500511
46382;BME280;66809;52.974;-2.514;2024-02-21T01:02:13;1008.5624279163774;;;8.213950814653275;45.956898764252884
46382;BME280;66809;52.974;-2.514;2024-02-21T01:04:12;1008.5162774619196;;;8.190366783099137;45.949294262647115
46382;BME280;66809;52.974;-2.514;2024-02-21T01:06:12;1008.4689542976986;;;8.170610091045306;45.9451487763778
46382;BME280;66809;52.974;-2.514;2024-02-21T01:08:13;1008.4236854976069;;;8.13840574325829;45.95315079093027
46382;BME280;66809;52.974;-2.514;2024-02-21T01:10:12;1008.3806907570664;;;8.113912339593563;45.96322945752937
46382;BME280;66809;52.974;-2.514;2024-02-21T01:12:12;1008.3372902300727;;;8.093668318126575;45.96668668948649
46382;BME280;66809;52.974;-2.514;2024-02-21T01:14:13;1008.2949169960422;;;8.064444653389696;45.97985394976275
46382;BME280;66809;52.974;-2.514;2024-02-21T01:16:12;1008.2529572724442;;;8.049504240227886;46.00576766371457
46382;BME280;66809;52.974;-2.514;2024-02-21T01:18:12;1008.2093313175168;;;8.02512006004435;46.025990805127
46382;BME280;66809;52.974;-2.514;2024-02-21T01:20:13;1008.1612064307473;;;8.001895338645381;46.048266804597496
46382;BME280;66809;52.974;-2.514;2024-02-21T01:22:12;1008.1101601550816;;;7.992961258636307;46.06492278703403
46382;BME280;66809;52.974;-2.514;2024-02-21T01:24:12;1008.0575392152929;;;7.9723411292874955;46.083615087568205
46382;BME280;66809;52.974;-2.514;2024-02-21T01:26:13;1008.0046336635088;;;7.951899400924849;46.09727668977403
46382;BME280;66809;52.974;-2.514;2024-02-21T01:28:12;1007.9481678387803;;;7.930835939483766;46.11648127521398
46382;BME280;66809;52.974;-2.514;2024-02-21T01:30:12;1007.8882369587823;;;7.915962700638188;46.134822989892854
46382;BME280;66809;52.974;-2.514;2024-02-21T01:32:12;1007.8288862017582;;;7.900215671373686;46.160947535998346
46382;BME280;66809;52.974;-2.514;2024-02-21T01:34:13;1007.769629909167;;;7.88492726020092;46.18457339982732
46382;BME280;66809;52.974;-2.514;2024-02-21T01:36:12;1007.7108554370741;;;7.877373054295961;46.20624104864425
46382;BME280;66809;52.974;-2.514;2024-02-21T01:38:13;1007.651787352532;;;7.860485308284205;46.23659312252948
46382;BME280;66809;52.974;-2.514;2024-02-21T01:40:14;1007.5936255588957;;;7.857190842078792;46.25557643056008
46382;BME280;66809;52.974;-2.514;2024-02-21T01:42:12;1007.5373468092254;;;7.862465340583712;46.28779621723567
46382;BME280;66809;52.974;-2.514;2024-02-21T01:44:13;1007.4860537702232;;;7.844428484151743;46.322375755020985
46382;BME280;66809;52.974;-2.514;2024-02-21T01:46:13;1007.4379932029468;;;7.841712727777707;46.34618532362101
46382;BME280;66809;52.974;-2.514;2024-02-21T01:48:12;1007.3932923076302;;;7.834816749651794;46.361461783654654
46382;BME280;66809;52.974;-2.514;2024-02-21T01:50:14;1007.35099360484;;;7.835835325507272;46.36082555488141
46382;BME280;66809;52.974;-2.514;2024-02-21T01:52:14;1007.3088014085123;;;7.848049678533861;46.357281605694716
46382;BME280;66809;52.974;-2.514;2024-02-21T01:54:13;1007.2682652581485;;;7.856081854056046;46.349460006782586
46382;BME280;66809;52.974;-2.514;2024-02-21T01:56:12;1007.2261700209269;;;7.854758259657647;46.34027388659477
46382;BME280;66809;52.974;-2.514;2024-02-21T01:58:13;1007.1870965742419;;;7.858457029958383;46.33147703817796
46382;BME280;66809;52.974;-2.514;2024-02-21T02:00:14;1007.1496321882811;;;7.872292944867378;46.323462766996236
46382;BME280;66809;52.974;-2.514;2024-02-21T02:02:12;1007.1132849774802;;;7.882318310631207;46.31267192079354
46382;BME280;66809;52.974;-2.514;2024-02-21T02:04:12;1007.0773654783744;;;7.891696728531605;46.2916529767461
46382;BME280;66809;52.974;-2.514;2024-02-21T02:06:12;1007.0429054725981;;;7.902915149685044;46.27006543761017
46382;BME280;66809;52.974;-2.514;2024-02-21T02:08:13;1007.0052979198349;;;7.918618207643217;46.24039910257986
46382;BME280;66809;52.974;-2.514;2024-02-21T02:10:13;1006.9652226829126;;;7.924333412795883;46.215069701827375
46382;BME280;66809;52.974;-2.514;2024-02-21T02:12:13;1006.9250216349416;;;7.926704680406251;46.194385258386504
46382;BME280;66809;52.974;-2.514;2024-02-21T02:14:12;1006.8837277428086;;;7.935468835732834;46.18282528535933
46382;BME280;66809;52.974;-2.514;2024-02-21T02:16:12;1006.8412035555956;;;7.931443320167599;46.1676536981087
46382;BME280;66809;52.974;-2.514;2024-02-21T02:18:14;1006.7978364406389;;;7.932469379598319;46.16965724662325
46382;BME280;66809;52.974;-2.514;2024-02-21T02:20:13;1006.7568190019866;;;7.936193465994425;46.16832506842277
46382;BME280;66809;52.974;-2.514;2024-02-21T02:22:19;1006.7174282056653;;;7.9269430416338675;46.173987173192934
46382;BME280;66809;52.974;-2.514;2024-02-21T02:24:13;1006.677801908956;;;7.932330691346013;46.17880151118752
46382;BME280;66809;52.974;-2.514;2024-02-21T02:26:12;1006.6392014741808;;;7.943370840550317;46.1822598537812
46382;BME280;66809;52.974;-2.514;2024-02-21T02:28:12;1006.6010862774001;;;7.952068814389965;46.177759074647575
46382;BME280;66809;52.974;-2.514;2024-02-21T02:30:12;1006.5634285392384;;;7.944784423918041;46.17857115159235
46382;BME280;66809;52.974;-2.514;2024-02-21T02:32:12;1006.5269517779424;;;7.942812080859368;46.18983193585408
46382;BME280;66809;52.974;-2.514;2024-02-21T02:34:12;1006.4910219796898;;;7.938173378074653;46.19942347981664
46382;BME280;66809;52.974;-2.514;2024-02-21T02:36:12;1006.4534087724361;;;7.925157009481071;46.21210589144962
46382;BME280;66809;52.974;-2.514;2024-02-21T02:38:12;1006.4156918041386;;;7.919303009669856;46.224892553227534
46382;BME280;66809;52.974;-2.514;2024-02-21T02:40:13;1006.3763741900442;;;7.906104762515878;46.2456498317138
46382;BME280;66809;52.974;-2.514;2024-02-21T02:42:12;1006.3344374508104;;;7.886284834173739;46.26474102144896
46382;BME280;66809;52.974;-2.514;2024-02-21T02:44:12;1006.2891588090455;;;7.879630718093949;46.28439000835378
46382;BME280;66809;52.974;-2.514;2024-02-21T02:46:12;1006.2420236295162;;;7.8649127737834;46.312868888406804
46382;BME280;66809;52.974;-2.514;2024-02-21T02:48:12;1006.1892676875792;;;7.852688237444132;46.3445398810297
46382;BME280;66809;52.974;-2.514;2024-02-21T02:50:12;1006.1338121532142;;;7.844966189208541;46.389098337005095
46382;BME280;66809;52.974;-2.514;2024-02-21T02:52:12;1006.0761720843522;;;7.8256524366100395;46.42960631138636
46382;BME280;66809;52.974;-2.514;2024-02-21T02:54:12;1006.0167770070333;;;7.802556816387145;46.46419348013793
46382;BME280;66809;52.974;-2.514;2024-02-21T02:56:14;1005.9572268631916;;;7.788388468273331;46.504426792561304
46382;BME280;66809;52.974;-2.514;2024-02-21T02:58:12;1005.8959293075638;;;7.781808002850569;46.53758495734744
46382;BME280;66809;52.974;-2.514;2024-02-21T03:00:13;1005.833502063251;;;7.763342817074288;46.5777286146913
46382;BME280;66809;52.974;-2.514;2024-02-21T03:02:12;1005.7725888358655;;;7.7422700856032565;46.61454637098566
46382;BME280;66809;52.974;-2.514;2024-02-21T03:04:12;1005.7130186513102;;;7.720794079832834;46.66001959577969
46382;BME280;66809;52.974;-2.514;2024-02-21T03:06:13;1005.6515821928386;;;7.704637474788119;46.70830956207651
46382;BME280;66809;52.974;-2.514;2024-02-21T03:08:12;1005.5924149168609;;;7.691421517799177;46.75361008962529
46382;BME280;66809;52.974;-2.514;2024-02-21T03:10:12;1005.5320237687133;;;7.672264433976927;46.80016774860251
46382;BME280;66809;52.974;-2.514;2024-02-21T03:12:12;1005.4712368315111;;;7.6631485817271;46.8481277193272
46382;BME280;66809;52.974;-2.514;2024-02-21T03:14:12;1005.4101546840191;;;7.647042268851534;46.876307304165486
46382;BME280;66809;52.974;-2.514;2024-02-21T03:16:12;1005.3439571424194;;;7.639968967435937;46.894590886681335
46382;BME280;66809;52.974;-2.514;2024-02-21T03:18:12;1005.2762099211213;;;7.6349289164750465;46.912491617934585
46382;BME280;66809;52.974;-2.514;2024-02-21T03:20:13;1005.2074601182495;;;7.623015135659509;46.93436723158158
46382;BME280;66809;52.974;-2.514;2024-02-21T03:22:12;1005.1399593214163;;;7.6111181586798535;46.95254500280076
46382;BME280;66809;52.974;-2.514;2024-02-21T03:24:12;1005.0738092367438;;;7.597498808644115;46.97275000108687
46382;BME280;66809;52.974;-2.514;2024-02-21T03:26:12;1005.0068601653334;;;7.574670018117232;46.992726823351404
46382;BME280;66809;52.974;-2.514;2024-02-21T03:28:13;1004.9406350379791;;;7.55578272863416;47.01881668930411
46382;BME280;66809;52.974;-2.514;2024-02-21T03:30:13;1004.8756876763606;;;7.54745757954407;47.04426613776565
46382;BME280;66809;52.974;-2.514;2024-02-21T03:32:12;1004.8081007824928;;;7.544038041905969;47.04860954822696
46382;BME280;66809;52.974;-2.514;2024-02-21T03:34:12;1004.7382035241965;;;7.542853386039115;47.04840441693211
46382;BME280;66809;52.974;-2.514;2024-02-21T03:36:13;1004.6686613421409;;;7.548559269962792;47.04869612681113
46382;BME280;66809;52.974;-2.514;2024-02-21T03:38:12;1004.5993530664466;;;7.547223380897056;47.04887833229125
46382;BME280;66809;52.974;-2.514;2024-02-21T03:40:12;1004.5298276516634;;;7.539114577429867;47.05371846489109
46382;BME280;66809;52.974;-2.514;2024-02-21T03:42:12;1004.4609716541519;;;7.5345093317408605;47.05012988228338
46382;BME280;66809;52.974;-2.514;2024-02-21T03:44:13;1004.3919787553037;;;7.535357915314565;47.04527419176426
46382;BME280;66809;52.974;-2.514;2024-02-21T03:46:13;1004.3226241295779;;;7.538138916500158;47.03819990953371
46382;BME280;66809;52.974;-2.514;2024-02-21T03:48:12;1004.2565344826187;;;7.5418945278295855;47.02656379874948
46382;BME280;66809;52.974;-2.514;2024-02-21T03:50:12;1004.1901702028188;;;7.534157326872509;47.01589465207862
46382;BME280;66809;52.974;-2.514;2024-02-21T03:52:12;1004.1220420374214;;;7.534056505188423;47.008988907753015
46382;BME280;66809;52.974;-2.514;2024-02-21T03:54:13;1004.0531636324363;;;7.537670337760804;47.004981950045156
46382;BME280;66809;52.974;-2.514;2024-02-21T03:56:12;1003.9855791126114;;;7.534906141264687;47.002329727528235
46382;BME280;66809;52.974;-2.514;2024-02-21T03:58:12;1003.9175694343411;;;7.52926012114091;47.00675095168369
46382;BME280;66809;52.974;-2.514;2024-02-21T04:00:12;1003.849575435173;;;7.521891734001766;47.01261251940279
46382;BME280;66809;52.974;-2.514;2024-02-21T04:02:12;1003.7806614251738;;;7.520229231167094;47.02129404214758
46382;BME280;66809;52.974;-2.514;2024-02-21T04:04:12;1003.7124216107113;;;7.528631234726761;47.027829048695345
46382;BME280;66809;52.974;-2.514;2024-02-21T04:06:12;1003.6452139438335;;;7.521145227342431;47.03271355396144
46382;BME280;66809;52.974;-2.514;2024-02-21T04:08:12;1003.5782706311495;;;7.5107269919292445;47.04223640434274
46382;BME280;66809;52.974;-2.514;2024-02-21T04:10:12;1003.5141200909213;;;7.5063339117911125;47.05273196266467
46382;BME280;66809;52.974;-2.514;2024-02-21T04:12:13;1003.4538350415493;;;7.492924637086835;47.06669412371848
46382;BME280;66809;52.974;-2.514;2024-02-21T04:14:12;1003.3947361433135;;;7.491320095991197;47.08625663491443
46382;BME280;66809;52.974;-2.514;2024-02-21T04:16:12;1003.3433843473591;;;7.483654885756337;47.12180831754046
46382;BME280;66809;52.974;-2.514;2024-02-21T04:18:12;1003.2938613358959;;;7.475174713060563;47.15082379267048
46382;BME280;66809;52.974;-2.514;2024-02-21T04:20:14;1003.2444926495681;;;7.458327212639378;47.182281621514235
46382;BME280;66809;52.974;-2.514;2024-02-21T04:22:12;1003.1934860677208;;;7.441398675788253;47.21673748551576
46382;BME280;66809;52.974;-2.514;2024-02-21T04:24:12;1003.1399100229878;;;7.424887250827664;47.25042989129922
46382;BME280;66809;52.974;-2.514;2024-02-21T04:26:12;1003.0871878677451;;;7.417173571162951;47.284833358007674
46382;BME280;66809;52.974;-2.514;2024-02-21T04:28:12;1003.0337712012359;;;7.403518760909869;47.31680239431999
46382;BME280;66809;52.974;-2.514;2024-02-21T04:30:12;1002.9810945360093;;;7.401356753254822;47.341107928719225
46382;BME280;66809;52.974;-2.514;2024-02-21T04:32:12;1002.9288702107641;;;7.387347153150983;47.37662414407743
46382;BME280;66809;52.974;-2.514;2024-02-21T04:34:13;1002.879125197814;;;7.364450362999544;47.41764152621271
46382;BME280;66809;52.974;-2.514;2024-02-21T04:36:12;1002.8292702560691;;;7.336144733666659;47.46331176152498
46382;BME280;66809;52.974;-2.514;2024-02-21T04:38:12;1002.7785008683908;;;7.315937592283594;47.510802801212776
46382;BME280;66809;52.974;-2.514;2024-02-21T04:40:13;1002.7283974126128;;;7.307559327820117;47.559271263629086
46382;BME280;66809;52.974;-2.514;2024-02-21T04:42:12;1002.6772487576516;;;7.293469744199077;47.60852212436979
46382;BME280;66809;52.974;-2.514;2024-02-21T04:44:12;1002.6264097910197;;;7.283537144650264;47.66097095092512
46382;BME280;66809;52.974;-2.514;2024-02-21T04:46:13;1002.5747967649895;;;7.263506430485189;47.71653186396489
46382;BME280;66809;52.974;-2.514;2024-02-21T04:48:12;1002.5208790536749;;;7.247038066105763;47.76466189262124
46382;BME280;66809;52.974;-2.514;2024-02-21T04:50:12;1002.4678161301509;;;7.240347486849198;47.80544496383182
46382;BME280;66809;52.974;-2.514;2024-02-21T04:52:12;1002.4157254400014;;;7.220435238249336;47.84343441116484
46382;BME280;66809;52.974;-2.514;2024-02-21T04:54:12;1002.3629116038198;;;7.214301079760696;47.87388179989069
46382;BME280;66809;52.974;-2.514;2024-02-21T04:56:12;1002.3086019646645;;;7.207914867670606;47.90073041635537
46382;BME280;66809;52.974;-2.514;2024-02-21T04:58:12;1002.2549072818439;;;7.20210647409478;47.933365177847804
46382;BME280;66809;52.974;-2.514;2024-02-21T05:00:13;1002.2009527674231;;;7.199415154753834;47.96592569721439
46382;BME280;66809;52.974;-2.514;2024-02-21T05:02:12;1002.1465881628495;;;7.185569004537963;47.99153481750391
46382;BME280;66809;52.974;-2.514;2024-02-21T05:04:12;1002.0922069061314;;;7.165044274961266;48.010477310401825
46382;BME280;66809;52.974;-2.514;2024-02-21T05:06:12;1002.0384611283093;;;7.160202935103208;48.02476041884925
46382;BME280;66809;52.974;-2.514;2024-02-21T05:08:12;1001.9848035555743;;;7.153867987047835;48.041214523678654
46382;BME280;66809;52.974;-2.514;2024-02-21T05:10:12;1001.928305711239;;;7.152269739864868;48.05844315053771
46382;BME280;66809;52.974;-2.514;2024-02-21T05:12:12;1001.8665640739993;;;7.146521847007265;48.062621639494594
46382;BME280;66809;52.974;-2.514;2024-02-21T05:14:12;1001.8032212111829;;;7.136003647591102;48.07311619590019
46382;BME280;66809;52.974;-2.514;2024-02-21T05:16:12;1001.7367307822343;;;7.132593358937952;48.06502731878702
46382;BME280;66809;52.974;-2.514;2024-02-21T05:18:12;1001.6692337417684;;;7.133087988211025;48.055864069715746
46382;BME280;66809;52.974;-2.514;2024-02-21T05:20:13;1001.6022064946798;;;7.141061275879943;48.04448763059137
46382;BME280;66809;52.974;-2.514;2024-02-21T05:22:13;1001.5368042356181;;;7.150521677666083;48.02671584866288
46382;BME280;66809;52.974;-2.514;2024-02-21T05:24:12;1001.4735580672688;;;7.17259339680647;48.015123658882345
46382;BME280;66809;52.974;-2.514;2024-02-21T05:26:20;1001.4086718427733;;;7.164654541974681;48.00942081541504
46382;BME280;66809;52.974;-2.514;2024-02-21T05:28:13;1001.3454062723208;;;7.1697460172086425;47.99665408266663
46382;BME280;66809;52.974;-2.514;2024-02-21T05:30:12;1001.2816592430534;;;7.1625381172644245;47.99066800059339
46382;BME280;66809;52.974;-2.514;2024-02-21T05:32:12;1001.2190705154277;;;7.161867875141405;47.98206902839163
46382;BME280;66809;52.974;-2.514;2024-02-21T05:34:12;1001.1557067370494;;;7.172329161170736;47.972992494612896
46382;BME280;66809;52.974;-2.514;2024-02-21T05:36:13;1001.0918290855526;;;7.1767400895857225;47.96119340421202
46382;BME280;66809;52.974;-2.514;2024-02-21T05:38:12;1001.0246576770834;;;7.181307669096735;47.952322420600616
46382;BME280;66809;52.974;-2.514;2024-02-21T05:40:13;1000.9570024978744;;;7.173234383292663;47.93409508775183
46382;BME280;66809;52.974;-2.514;2024-02-21T05:42:12;1000.8911281729459;;;7.175374937921549;47.933385575019386
46382;BME280;66809;52.974;-2.514;2024-02-21T05:44:12;1000.8265037696394;;;7.162957940989207;47.929479104156165
46382;BME280;66809;52.974;-2.514;2024-02-21T05:46:12;1000.7618132412135;;;7.154948083290717;47.9272601558307
46382;BME280;66809;52.974;-2.514;2024-02-21T05:48:12;1000.698377393475;;;7.145955214585543;47.93260608794437
46382;BME280;66809;52.974;-2.514;2024-02-21T05:50:12;1000.6330441960184;;;7.134082434396381;47.93399207338806
46382;BME280;66809;52.974;-2.514;2024-02-21T05:52:12;1000.5677570238533;;;7.142212633260683;47.93430003767491
46382;BME280;66809;52.974;-2.514;2024-02-21T05:54:12;1000.5004935498947;;;7.129800237891658;47.94310721052991
46382;BME280;66809;52.974;-2.514;2024-02-21T05:56:13;1000.4308249012645;;;7.12529796969372;47.953095030640206
46382;BME280;66809;52.974;-2.514;2024-02-21T05:58:12;1000.3618043810122;;;7.117921218304205;47.95845165197526
46382;BME280;66809;52.974;-2.514;2024-02-21T06:00:14;1000.2937570229832;;;7.1040255079390455;47.95151798997111
46382;BME280;66809;52.974;-2.514;2024-02-21T06:02:12;1000.2213563237359;;;7.1090909565245095;47.94417391772652
46382;BME280;66809;52.974;-2.514;2024-02-21T06:04:12;1000.1504725601801;;;7.102882045271845;47.941289958776494
46382;BME280;66809;52.974;-2.514;2024-02-21T06:06:12;1000.0823705930902;;;7.102496642320594;47.93520319632294
46382;BME280;66809;52.974;-2.514;2024-02-21T06:08:13;1000.0155878606349;;;7.107727143080679;47.92272230815915
46382;BME280;66809;52.974;-2.514;2024-02-21T06:10:12;999.9503847017417;;;7.108551595484068;47.89867507017968
46382;BME280;66809;52.974;-2.514;2024-02-21T06:12:12;999.8861949429443;;;7.111114389559353;47.89328639267695
46382;BME280;66809;52.974;-2.514;2024-02-21T06:14:12;999.8231974876585;;;7.099753293914601;47.89058757656732
46382;BME280;66809;52.974;-2.514;2024-02-21T06:16:12;999.7606115880069;;;7.07968145575893;47.89358535892409
46382;BME280;66809;52.974;-2.514;2024-02-21T06:18:12;999.7001365136566;;;7.060727066354221;47.900279132449484
46382;BME280;66809;52.974;-2.514;2024-02-21T06:20:12;999.6371471380295;;;7.05756717861223;47.89226757914271
46382;BME280;66809;52.974;-2.514;2024-02-21T06:22:13;999.5704744418338;;;7.046777402794035;47.884043888970105
46382;BME280;66809;52.974;-2.514;2024-02-21T06:24:12;999.4994789717744;;;7.024696476595439;47.875032609263855
46382;BME280;66809;52.974;-2.514;2024-02-21T06:26:12;999.4236117259233;;;7.021855870931938;47.85837965015948
46382;BME280;66809;52.974;-2.514;2024-02-21T06:28:13;999.3444404001683;;;7.017697282748343;47.85204429022432
46382;BME280;66809;52.974;-2.514;2024-02-21T06:30:13;999.2652720927616;;;7.011530679223793;47.84811233252898
46382;BME280;66809;52.974;-2.514;2024-02-21T06:32:13;999.1892211809295;;;7.000153903582771;47.83777962106081
46382;BME280;66809;52.974;-2.514;2024-02-21T06:34:12;999.1145024030717;;;6.977922860351502;47.832101689481235
46382;BME280;66809;52.974;-2.514;2024-02-21T06:36:12;999.0442221743778;;;6.965973669533741;47.813473355590965
46382;BME280;66809;52.974;-2.514;2024-02-21T06:38:13;998.9781539885346;;;6.9572621361598355;47.786227289975066
46382;BME280;66809;52.974;-2.514;2024-02-21T06:40:12;998.9129145949598;;;6.959488895641511;47.762969228312286
46382;BME280;66809;52.974;-2.514;2024-02-21T06:42:12;998.8476450197373;;;6.940281401084677;47.728650950639455
46382;BME280;66809;52.974;-2.514;2024-02-21T06:44:12;998.7814766545135;;;6.944025903370958;47.69027768178406
46382;BME280;66809;52.974;-2.514;2024-02-21T06:46:22;998.7177271834345;;;6.944851475662802;47.65085150625041
46382;BME280;66809;52.974;-2.514;2024-02-21T06:48:12;998.6572396900079;;;6.942316348463816;47.612940971175654
46382;BME280;66809;52.974;-2.514;2024-02-21T06:50:12;998.5973572855739;;;6.935849203469571;47.57372657238472
46382;BME280;66809;52.974;-2.514;2024-02-21T06:52:12;998.5357948203516;;;6.9230441676787775;47.54697731034004
46382;BME280;66809;52.974;-2.514;2024-02-21T06:54:13;998.4747570200141;;;6.910897458879272;47.51556732592485
46382;BME280;66809;52.974;-2.514;2024-02-21T06:56:12;998.4153816511833;;;6.9004262319309815;47.486269639344165
46382;BME280;66809;52.974;-2.514;2024-02-21T06:58:12;998.3564492531049;;;6.885041874484743;47.45842849473021
46382;BME280;66809;52.974;-2.514;2024-02-21T07:00:13;998.2970554837486;;;6.867096100766013;47.43458153473646
46382;BME280;66809;52.974;-2.514;2024-02-21T07:02:12;998.2415388800761;;;6.843301602498652;47.417236916466585
46382;BME280;66809;52.974;-2.514;2024-02-21T07:04:12;998.1819918893837;;;6.832562617760985;47.39157512899695
46382;BME280;66809;52.974;-2.514;2024-02-21T07:06:13;998.1177462222679;;;6.807675892171796;47.37199695464299
46382;BME280;66809;52.974;-2.514;2024-02-21T07:08:12;998.0521782059162;;;6.7847730716895915;47.36160065364812
46382;BME280;66809;52.974;-2.514;2024-02-21T07:10:12;997.9857646101758;;;6.765154212218692;47.34683962277471
46382;BME280;66809;52.974;-2.514;2024-02-21T07:12:13;997.9193178839298;;;6.752927778726473;47.309775539197766